createdAt,value
2023-01-19T00:00:48.083Z,9.86
2023-01-19T00:03:18.538Z,9.84
2023-01-19T00:05:46.616Z,9.87
2023-01-19T00:08:17.478Z,9.89
2023-01-19T00:10:46.213Z,9.92
2023-01-19T00:13:14.104Z,9.95
2023-01-19T00:15:42.004Z,9.97
2023-01-19T00:18:11.162Z,9.96
2023-01-19T00:20:40.740Z,9.95
2023-01-19T00:23:09.483Z,9.94
2023-01-19T00:25:42.354Z,9.92
2023-01-19T00:28:10.691Z,9.91
2023-01-19T00:30:38.712Z,9.94
2023-01-19T00:33:06.646Z,9.95
2023-01-19T00:35:35.142Z,9.96
2023-01-19T00:38:04.554Z,9.96
2023-01-19T00:40:32.427Z,9.98
2023-01-19T00:43:00.632Z,9.97
2023-01-19T00:45:28.899Z,9.99
2023-01-19T00:47:57.888Z,9.98
2023-01-19T00:50:25.855Z,9.97
2023-01-19T00:52:54.039Z,9.93
2023-01-19T00:55:23.580Z,9.91
2023-01-19T00:57:51.491Z,9.89
2023-01-19T01:00:20.598Z,9.87
2023-01-19T01:02:48.784Z,9.84
2023-01-19T01:05:16.846Z,9.82
2023-01-19T01:07:45.420Z,9.82
2023-01-19T01:10:14.343Z,9.80
2023-01-19T01:12:54.873Z,9.77
2023-01-19T01:15:26.385Z,9.78
2023-01-19T01:17:54.301Z,9.79
2023-01-19T01:20:23.107Z,9.79
2023-01-19T01:22:52.405Z,9.80
2023-01-19T01:25:22.590Z,9.83
2023-01-19T01:27:51.992Z,9.83
2023-01-19T01:30:20.121Z,9.86
2023-01-19T01:32:48.044Z,9.88
2023-01-19T01:35:16.139Z,9.90
2023-01-19T01:37:44.101Z,9.90
2023-01-19T01:40:13.308Z,9.90
2023-01-19T01:42:42.462Z,9.94
2023-01-19T01:45:32.744Z,9.95
2023-01-19T01:48:03.793Z,9.98
2023-01-19T01:50:31.821Z,9.92
2023-01-19T01:53:07.041Z,9.96
2023-01-19T01:55:36.370Z,9.91
2023-01-19T01:58:04.918Z,9.89
2023-01-19T02:00:54.836Z,9.85
2023-01-19T02:03:22.213Z,9.77
2023-01-19T02:05:50.118Z,9.78
2023-01-19T02:08:36.233Z,9.75
2023-01-19T02:11:21.664Z,9.68
2023-01-19T02:13:49.561Z,9.63
2023-01-19T02:16:18.892Z,9.60
2023-01-19T02:18:47.381Z,9.57
2023-01-19T02:21:18.946Z,9.55
2023-01-19T02:23:49.350Z,9.55
2023-01-19T02:26:19.831Z,9.54
2023-01-19T02:28:50.459Z,9.51
2023-01-19T02:31:18.603Z,9.49
2023-01-19T02:33:46.466Z,9.50
2023-01-19T02:36:15.207Z,9.49
2023-01-19T02:38:43.113Z,9.46
2023-01-19T02:41:13.477Z,9.40
2023-01-19T02:43:41.506Z,9.34
2023-01-19T02:46:09.397Z,9.26
2023-01-19T02:48:37.242Z,9.19
2023-01-19T02:51:05.820Z,9.14
2023-01-19T02:54:05.928Z,9.09
2023-01-19T02:56:46.524Z,9.05
2023-01-19T02:59:16.803Z,8.97
2023-01-19T03:01:54.898Z,8.92
2023-01-19T03:04:26.623Z,8.89
2023-01-19T03:06:56.528Z,8.86
2023-01-19T03:09:28.618Z,8.82
2023-01-19T03:12:04.670Z,8.80
2023-01-19T03:14:32.574Z,8.75
2023-01-19T03:17:01.599Z,8.71
2023-01-19T03:19:32.401Z,8.72
2023-01-19T03:22:01.481Z,8.70
2023-01-19T03:24:30.792Z,8.68
2023-01-19T03:27:01.132Z,8.68
2023-01-19T03:29:29.920Z,8.63
2023-01-19T03:31:57.830Z,8.63
2023-01-19T03:34:25.728Z,8.61
2023-01-19T03:36:55.196Z,8.57
2023-01-19T03:39:23.906Z,8.55
2023-01-19T03:41:53.568Z,8.56
2023-01-19T03:44:22.849Z,8.56
2023-01-19T03:46:50.735Z,8.55
2023-01-19T03:49:19.085Z,8.56
2023-01-19T03:51:47.012Z,8.54
2023-01-19T03:54:14.916Z,8.50
2023-01-19T03:56:43.764Z,8.50
2023-01-19T03:59:11.638Z,8.49
2023-01-19T04:01:41.418Z,8.51
2023-01-19T04:04:09.432Z,8.50
2023-01-19T04:06:37.291Z,8.45
2023-01-19T04:09:05.333Z,8.54
2023-01-19T04:11:33.195Z,8.54
2023-01-19T04:14:01.692Z,8.53
2023-01-19T04:16:29.683Z,8.51
2023-01-19T04:18:58.989Z,8.49
2023-01-19T04:21:26.888Z,8.49
2023-01-19T04:23:55.001Z,8.51
2023-01-19T04:26:22.906Z,8.51
2023-01-19T04:28:50.768Z,8.53
2023-01-19T04:31:19.288Z,8.56
2023-01-19T04:33:47.309Z,8.56
2023-01-19T04:36:16.548Z,8.57
2023-01-19T04:38:44.470Z,8.54
2023-01-19T04:41:12.443Z,8.51
2023-01-19T04:43:40.861Z,8.48
2023-01-19T04:46:08.779Z,8.43
2023-01-19T04:48:36.781Z,8.36
2023-01-19T04:51:05.033Z,8.31
2023-01-19T04:53:34.837Z,8.30
2023-01-19T04:56:02.816Z,8.27
2023-01-19T04:58:30.745Z,8.20
2023-01-19T05:00:58.666Z,8.13
2023-01-19T05:03:27.017Z,8.06
2023-01-19T05:05:54.983Z,8.05
2023-01-19T05:08:22.858Z,8.03
2023-01-19T05:10:52.140Z,8.05
2023-01-19T05:13:20.099Z,8.08
2023-01-19T05:15:48.066Z,8.11
2023-01-19T05:18:16.013Z,8.13
2023-01-19T05:20:43.868Z,8.14
2023-01-19T05:23:11.768Z,8.17
2023-01-19T05:25:39.844Z,8.17
2023-01-19T05:28:09.117Z,8.13
2023-01-19T05:30:37.101Z,8.12
2023-01-19T05:33:05.197Z,8.09
2023-01-19T05:35:36.135Z,8.04
2023-01-19T05:38:04.658Z,7.97
2023-01-19T05:40:32.579Z,7.92
2023-01-19T05:43:01.657Z,7.89
2023-01-19T05:45:31.134Z,7.84
2023-01-19T05:47:59.121Z,7.78
2023-01-19T05:50:27.085Z,7.77
2023-01-19T05:52:54.977Z,7.75
2023-01-19T05:55:23.038Z,7.79
2023-01-19T05:57:50.979Z,7.85
2023-01-19T06:00:19.270Z,7.87
2023-01-19T06:02:49.402Z,7.87
2023-01-19T06:05:17.601Z,7.85
2023-01-19T06:07:45.489Z,7.82
2023-01-19T06:10:13.396Z,7.83
2023-01-19T06:12:41.512Z,7.83
2023-01-19T06:15:09.954Z,7.85
2023-01-19T06:17:38.083Z,7.88
2023-01-19T06:20:08.120Z,7.90
2023-01-19T06:22:35.987Z,7.87
2023-01-19T06:25:04.033Z,7.87
2023-01-19T06:27:32.027Z,7.87
2023-01-19T06:29:59.891Z,7.91
2023-01-19T06:32:27.851Z,7.91
2023-01-19T06:34:55.758Z,7.92
2023-01-19T06:37:26.788Z,7.90
2023-01-19T06:39:54.674Z,7.87
2023-01-19T06:42:22.641Z,7.87
2023-01-19T06:44:50.533Z,7.88
2023-01-19T06:47:18.479Z,7.90
2023-01-19T06:49:46.522Z,7.93
2023-01-19T06:52:16.095Z,7.97
2023-01-19T06:54:46.149Z,8.01
2023-01-19T06:57:14.252Z,7.98
2023-01-19T06:59:42.340Z,7.95
2023-01-19T07:02:26.542Z,7.94
2023-01-19T07:04:56.457Z,7.83
2023-01-19T07:07:24.486Z,7.95
2023-01-19T07:09:55.852Z,7.95
2023-01-19T07:12:23.876Z,7.96
2023-01-19T07:14:52.770Z,7.97
2023-01-19T07:17:24.128Z,7.94
2023-01-19T07:19:52.064Z,7.99
2023-01-19T07:22:20.172Z,7.97
2023-01-19T07:24:48.049Z,7.99
2023-01-19T07:27:18.971Z,7.89
2023-01-19T07:29:46.921Z,7.97
2023-01-19T07:32:14.886Z,7.96
2023-01-19T07:34:44.185Z,7.96
2023-01-19T07:37:12.120Z,7.97
2023-01-19T07:39:39.974Z,7.97
2023-01-19T07:42:08.130Z,7.93
2023-01-19T07:44:37.455Z,7.89
2023-01-19T07:47:07.453Z,7.85
2023-01-19T07:49:36.458Z,7.84
2023-01-19T07:52:04.330Z,7.86
2023-01-19T07:54:32.255Z,7.88
2023-01-19T07:57:00.876Z,7.85
2023-01-19T07:59:30.294Z,7.81
2023-01-19T08:01:59.856Z,7.78
2023-01-19T08:04:28.015Z,7.75
2023-01-19T08:06:55.993Z,7.76
2023-01-19T08:09:24.467Z,7.73
2023-01-19T08:11:52.424Z,7.72
2023-01-19T08:14:20.358Z,7.70
2023-01-19T08:16:48.851Z,7.70
2023-01-19T08:19:19.526Z,7.71
2023-01-19T08:21:47.388Z,7.70
2023-01-19T08:24:19.595Z,7.69
2023-01-19T08:26:47.582Z,7.70
2023-01-19T08:29:15.510Z,7.61
2023-01-19T08:31:43.919Z,7.63
2023-01-19T08:34:12.117Z,7.60
2023-01-19T08:36:41.389Z,7.58
2023-01-19T08:39:09.330Z,7.55
2023-01-19T08:41:37.190Z,7.53
2023-01-19T08:44:05.289Z,7.52
2023-01-19T08:46:33.264Z,7.53
2023-01-19T08:49:01.175Z,7.56
2023-01-19T08:51:29.095Z,7.55
2023-01-19T08:53:58.436Z,7.53
2023-01-19T08:56:26.333Z,7.50
2023-01-19T08:59:08.264Z,7.42
2023-01-19T09:01:38.171Z,7.29
2023-01-19T09:04:06.591Z,7.22
2023-01-19T09:06:37.776Z,7.19
2023-01-19T09:09:07.080Z,7.16
2023-01-19T09:11:35.201Z,7.12
2023-01-19T09:14:03.669Z,7.12
2023-01-19T09:16:31.648Z,7.06
2023-01-19T09:18:59.632Z,7.07
2023-01-19T09:21:27.503Z,7.05
2023-01-19T09:23:55.856Z,7.07
2023-01-19T09:26:25.182Z,7.14
2023-01-19T09:28:53.090Z,7.19
2023-01-19T09:31:21.503Z,7.32
2023-01-19T09:33:49.478Z,7.47
2023-01-19T09:36:17.422Z,7.65
2023-01-19T09:38:45.338Z,7.80
2023-01-19T09:41:17.629Z,7.96
2023-01-19T09:43:48.501Z,8.09
2023-01-19T09:46:17.983Z,8.14
2023-01-19T09:48:47.888Z,8.34
2023-01-19T09:51:18.206Z,8.48
2023-01-19T09:54:03.445Z,8.58
2023-01-19T09:56:31.604Z,8.66
2023-01-19T09:59:00.990Z,8.77
2023-01-19T10:01:41.989Z,9.00
2023-01-19T10:04:23.265Z,9.15
2023-01-19T10:06:52.120Z,9.26
2023-01-19T10:09:22.388Z,9.28
2023-01-19T10:11:53.465Z,9.30
2023-01-19T10:14:26.335Z,9.34
2023-01-19T10:16:56.968Z,9.36
2023-01-19T10:19:26.928Z,9.44
2023-01-19T10:21:54.843Z,9.56
2023-01-19T10:24:24.951Z,9.69
2023-01-19T10:26:54.163Z,9.80
2023-01-19T10:29:25.457Z,9.93
2023-01-19T10:31:53.742Z,10.11
2023-01-19T10:34:23.628Z,10.31
2023-01-19T10:36:52.773Z,10.56
2023-01-19T10:39:20.618Z,10.82
2023-01-19T10:41:50.199Z,11.07
2023-01-19T10:44:25.685Z,11.31
2023-01-19T10:46:54.479Z,11.50
2023-01-19T10:49:26.979Z,11.72
2023-01-19T10:51:54.912Z,11.87
2023-01-19T10:54:22.808Z,11.96
2023-01-19T10:56:55.253Z,12.02
2023-01-19T10:59:35.404Z,12.06
2023-01-19T11:02:19.105Z,12.02
2023-01-19T11:04:50.228Z,12.08
2023-01-19T11:07:21.041Z,12.09
2023-01-19T11:09:49.148Z,12.11
2023-01-19T11:12:18.154Z,12.07
2023-01-19T11:14:48.038Z,12.05
2023-01-19T11:17:19.805Z,11.93
2023-01-19T11:19:54.345Z,12.08
2023-01-19T11:22:23.064Z,12.10
2023-01-19T11:24:51.091Z,12.11
2023-01-19T11:27:19.321Z,12.02
2023-01-19T11:29:54.820Z,12.00
2023-01-19T11:32:23.622Z,12.21
2023-01-19T11:34:51.696Z,12.30
2023-01-19T11:37:31.274Z,12.38
2023-01-19T11:39:59.890Z,12.47
2023-01-19T11:42:27.787Z,12.63
2023-01-19T11:45:02.204Z,12.34
2023-01-19T11:47:35.394Z,12.45
2023-01-19T11:50:06.034Z,12.70
2023-01-19T11:52:36.016Z,13.03
2023-01-19T11:55:06.974Z,13.41
2023-01-19T11:57:34.921Z,13.74
2023-01-19T12:00:05.855Z,13.36
2023-01-19T12:02:42.059Z,13.30
2023-01-19T12:05:13.355Z,13.48
2023-01-19T12:07:41.254Z,13.67
2023-01-19T12:10:18.046Z,14.23
2023-01-19T12:12:46.726Z,14.82
2023-01-19T12:15:25.654Z,15.23
2023-01-19T12:17:54.766Z,15.19
2023-01-19T12:20:27.980Z,15.14
2023-01-19T12:23:00.859Z,14.93
2023-01-19T12:25:33.278Z,14.84
2023-01-19T12:28:01.161Z,15.07
2023-01-19T12:30:30.661Z,15.42
2023-01-19T12:33:23.398Z,15.69
2023-01-19T12:35:59.630Z,16.11
2023-01-19T12:38:40.322Z,16.51
2023-01-19T12:41:26.758Z,16.66
2023-01-19T12:44:25.564Z,16.64
2023-01-19T12:46:57.373Z,16.56
2023-01-19T12:49:27.520Z,16.60
2023-01-19T12:51:57.041Z,16.79
2023-01-19T12:54:28.267Z,17.13
2023-01-19T12:56:58.940Z,17.32
2023-01-19T12:59:27.198Z,17.45
2023-01-19T13:02:35.222Z,17.42
2023-01-19T13:05:13.778Z,17.29
2023-01-19T13:08:21.573Z,17.27
2023-01-19T13:11:20.948Z,17.29
2023-01-19T13:14:31.032Z,17.34
2023-01-19T13:17:17.187Z,17.58
2023-01-19T13:20:07.672Z,17.63
2023-01-19T13:23:08.934Z,17.56
2023-01-19T13:25:38.268Z,17.61
2023-01-19T13:28:10.154Z,17.93
2023-01-19T13:30:38.195Z,18.29
2023-01-19T13:33:14.801Z,18.53
2023-01-19T13:35:50.745Z,18.50
2023-01-19T13:38:18.652Z,18.56
2023-01-19T13:40:47.938Z,18.56
2023-01-19T13:43:18.736Z,18.52
2023-01-19T13:45:50.690Z,18.39
2023-01-19T13:48:22.189Z,18.30
2023-01-19T13:51:04.053Z,18.36
2023-01-19T13:53:32.513Z,18.57
2023-01-19T13:56:21.966Z,18.58
2023-01-19T13:59:11.676Z,18.74
2023-01-19T14:01:40.880Z,18.59
2023-01-19T14:04:27.157Z,18.30
2023-01-19T14:06:55.791Z,18.35
2023-01-19T14:09:23.707Z,18.34
2023-01-19T14:12:08.901Z,18.08
2023-01-19T14:14:36.749Z,17.43
2023-01-19T14:17:04.844Z,17.08
2023-01-19T14:19:50.430Z,16.64
2023-01-19T14:22:18.327Z,16.09
2023-01-19T14:24:46.193Z,15.80
2023-01-19T14:27:21.615Z,15.88
2023-01-19T14:29:50.696Z,15.86
2023-01-19T14:32:19.451Z,15.26
2023-01-19T14:34:48.234Z,15.03
2023-01-19T14:37:21.174Z,15.25
2023-01-19T14:39:50.141Z,15.52
2023-01-19T14:42:22.219Z,15.83
2023-01-19T14:44:51.435Z,16.34
2023-01-19T14:47:26.872Z,16.71
2023-01-19T14:49:54.765Z,16.84
2023-01-19T14:52:25.840Z,16.87
2023-01-19T14:54:53.722Z,16.87
2023-01-19T14:57:23.085Z,16.70
2023-01-19T14:59:50.912Z,16.65
2023-01-19T15:02:19.668Z,16.26
2023-01-19T15:04:48.032Z,15.54
2023-01-19T15:07:23.704Z,15.12
2023-01-19T15:09:54.330Z,15.00
2023-01-19T15:12:24.139Z,14.85
2023-01-19T15:14:52.006Z,14.49
2023-01-19T15:17:25.453Z,14.07
2023-01-19T15:19:54.306Z,13.68
2023-01-19T15:22:23.353Z,13.38
2023-01-19T15:24:51.680Z,13.06
2023-01-19T15:27:21.673Z,12.84
2023-01-19T15:29:51.021Z,12.68
2023-01-19T15:32:18.997Z,12.51
2023-01-19T15:34:46.915Z,12.32
2023-01-19T15:37:14.988Z,12.11
2023-01-19T15:39:43.058Z,12.04
2023-01-19T15:42:11.842Z,11.93
2023-01-19T15:44:39.716Z,11.80
2023-01-19T15:47:10.349Z,11.68
2023-01-19T15:49:39.418Z,11.59
2023-01-19T15:52:07.346Z,11.51
2023-01-19T15:54:35.268Z,11.46
2023-01-19T15:57:03.258Z,11.39
2023-01-19T15:59:31.182Z,11.40
2023-01-19T16:01:59.221Z,11.36
2023-01-19T16:04:28.604Z,11.31
2023-01-19T16:06:56.650Z,11.21
2023-01-19T16:09:26.957Z,11.20
2023-01-19T16:11:56.916Z,11.13
2023-01-19T16:14:24.822Z,11.13
2023-01-19T16:16:55.406Z,11.12
2023-01-19T16:19:23.411Z,11.07
2023-01-19T16:21:52.923Z,11.03
2023-01-19T16:24:20.825Z,10.98
2023-01-19T16:26:48.813Z,10.94
2023-01-19T16:29:16.757Z,10.85
2023-01-19T16:31:47.198Z,10.79
2023-01-19T16:34:20.944Z,10.73
2023-01-19T16:36:49.079Z,10.67
2023-01-19T16:39:18.493Z,10.65
2023-01-19T16:41:46.790Z,10.42
2023-01-19T16:44:15.361Z,10.52
2023-01-19T16:46:44.431Z,10.44
2023-01-19T16:49:13.129Z,10.42
2023-01-19T16:51:41.524Z,10.33
2023-01-19T16:54:09.443Z,10.32
2023-01-19T16:56:38.811Z,10.26
2023-01-19T16:59:06.660Z,10.16
2023-01-19T17:01:35.081Z,10.14
2023-01-19T17:04:04.725Z,10.06
2023-01-19T17:06:32.610Z,9.96
2023-01-19T17:09:15.790Z,9.84
2023-01-19T17:11:45.128Z,9.74
2023-01-19T17:14:14.271Z,9.67
2023-01-19T17:16:42.283Z,9.45
2023-01-19T17:19:10.265Z,9.57
2023-01-19T17:21:38.111Z,9.49
2023-01-19T17:24:06.549Z,9.40
2023-01-19T17:26:34.428Z,9.31
2023-01-19T17:29:04.883Z,9.21
2023-01-19T17:31:33.001Z,9.10
2023-01-19T17:34:00.982Z,8.99
2023-01-19T17:36:29.644Z,8.92
2023-01-19T17:38:58.612Z,8.84
2023-01-19T17:41:27.315Z,8.78
2023-01-19T17:43:55.680Z,8.72
2023-01-19T17:46:25.951Z,8.69
2023-01-19T17:48:53.996Z,8.66
2023-01-19T17:51:22.923Z,8.67
2023-01-19T17:53:50.915Z,8.65
2023-01-19T17:56:21.543Z,8.66
2023-01-19T17:58:49.739Z,8.64
2023-01-19T18:01:18.629Z,8.65
2023-01-19T18:03:47.985Z,8.64
2023-01-19T18:06:15.906Z,8.60
2023-01-19T18:08:44.343Z,8.55
2023-01-19T18:11:12.275Z,8.46
2023-01-19T18:13:41.022Z,8.46
2023-01-19T18:16:10.276Z,8.43
2023-01-19T18:18:38.389Z,8.40
2023-01-19T18:21:08.668Z,8.43
2023-01-19T18:23:36.770Z,8.43
2023-01-19T18:26:06.092Z,8.43
2023-01-19T18:28:34.082Z,8.45
2023-01-19T18:31:02.078Z,8.49
2023-01-19T18:33:31.385Z,8.47
2023-01-19T18:35:59.229Z,8.47
2023-01-19T18:38:28.591Z,8.45
2023-01-19T18:41:03.317Z,8.43
2023-01-19T18:43:31.280Z,8.44
2023-01-19T18:45:59.397Z,8.49
2023-01-19T18:48:27.394Z,8.52
2023-01-19T18:50:56.135Z,8.55
2023-01-19T18:53:24.539Z,8.58
2023-01-19T18:55:54.319Z,8.63
2023-01-19T18:58:22.230Z,8.68
2023-01-19T19:00:50.268Z,8.71
2023-01-19T19:03:18.281Z,8.74
2023-01-19T19:05:46.174Z,8.76
2023-01-19T19:08:14.089Z,8.80
2023-01-19T19:10:42.283Z,8.81
2023-01-19T19:13:12.446Z,8.82
2023-01-19T19:15:43.784Z,8.83
2023-01-19T19:18:13.733Z,8.79
2023-01-19T19:20:43.215Z,8.77
2023-01-19T19:23:11.197Z,8.79
2023-01-19T19:25:39.101Z,8.80
2023-01-19T19:28:07.482Z,8.80
2023-01-19T19:30:38.981Z,8.81
2023-01-19T19:33:07.854Z,8.81
2023-01-19T19:35:35.745Z,8.82
2023-01-19T19:38:03.646Z,8.85
2023-01-19T19:40:31.607Z,8.85
2023-01-19T19:42:59.499Z,8.87
2023-01-19T19:45:27.415Z,8.91
2023-01-19T19:47:57.523Z,8.98
2023-01-19T19:50:25.372Z,9.01
2023-01-19T19:52:53.284Z,8.98
2023-01-19T19:55:21.269Z,8.99
2023-01-19T19:57:49.198Z,8.97
2023-01-19T20:00:17.979Z,8.93
2023-01-19T20:02:46.107Z,8.90
2023-01-19T20:05:15.568Z,8.88
2023-01-19T20:07:47.147Z,8.85
2023-01-19T20:10:15.314Z,8.84
2023-01-19T20:12:43.404Z,8.84
2023-01-19T20:15:12.605Z,8.83
2023-01-19T20:17:40.616Z,8.83
2023-01-19T20:20:10.315Z,8.91
2023-01-19T20:22:39.611Z,8.94
2023-01-19T20:25:08.545Z,8.93
2023-01-19T20:27:36.548Z,8.91
2023-01-19T20:30:05.183Z,8.92
2023-01-19T20:32:33.113Z,8.89
2023-01-19T20:35:01.367Z,8.85
2023-01-19T20:37:29.306Z,8.85
2023-01-19T20:39:59.656Z,8.84
2023-01-19T20:42:27.588Z,8.83
2023-01-19T20:44:56.570Z,8.81
2023-01-19T20:47:25.460Z,8.84
2023-01-19T20:49:53.358Z,8.85
2023-01-19T20:52:21.958Z,8.85
2023-01-19T20:54:50.013Z,8.86
2023-01-19T20:57:19.488Z,8.84
2023-01-19T20:59:47.563Z,8.86
2023-01-19T21:02:17.113Z,8.87
2023-01-19T21:04:45.014Z,8.88
2023-01-19T21:07:13.241Z,8.91
2023-01-19T21:09:41.406Z,8.91
2023-01-19T21:12:09.996Z,8.93
2023-01-19T21:14:40.317Z,8.93
2023-01-19T21:17:08.234Z,8.90
2023-01-19T21:19:36.288Z,8.85
2023-01-19T21:22:04.151Z,8.85
2023-01-19T21:24:32.354Z,8.82
2023-01-19T21:27:00.303Z,8.82
2023-01-19T21:29:28.405Z,8.82
2023-01-19T21:31:57.722Z,8.86
2023-01-19T21:34:25.784Z,8.91
2023-01-19T21:36:53.696Z,8.94
2023-01-19T21:39:21.753Z,8.99
2023-01-19T21:41:49.790Z,8.99
2023-01-19T21:44:17.967Z,9.01
2023-01-19T21:46:45.911Z,9.02
2023-01-19T21:49:18.041Z,8.86
2023-01-19T21:51:47.975Z,9.02
2023-01-19T21:54:16.286Z,8.99
2023-01-19T21:56:44.284Z,8.87
2023-01-19T21:59:13.442Z,8.64
2023-01-19T22:01:41.477Z,8.41
2023-01-19T22:04:09.660Z,8.18
2023-01-19T22:06:38.922Z,8.08
2023-01-19T22:09:07.331Z,7.97
2023-01-19T22:11:35.317Z,7.91
2023-01-19T22:14:03.230Z,7.86
2023-01-19T22:16:31.197Z,7.85
2023-01-19T22:19:01.137Z,7.88
2023-01-19T22:21:30.332Z,7.93
2023-01-19T22:24:00.335Z,7.94
2023-01-19T22:26:28.634Z,7.93
2023-01-19T22:28:57.132Z,7.90
2023-01-19T22:31:25.202Z,7.85
2023-01-19T22:33:53.418Z,7.73
2023-01-19T22:36:22.413Z,7.58
2023-01-19T22:38:50.797Z,7.39
2023-01-19T22:41:21.146Z,7.23
2023-01-19T22:43:49.462Z,7.11
2023-01-19T22:46:20.614Z,7.02
2023-01-19T22:48:48.606Z,6.92
2023-01-19T22:51:16.736Z,6.87
2023-01-19T22:53:44.602Z,6.83
2023-01-19T22:56:13.779Z,6.79
2023-01-19T22:58:45.113Z,6.77
2023-01-19T23:01:13.348Z,6.73
2023-01-19T23:03:41.312Z,6.73
2023-01-19T23:06:10.696Z,6.65
2023-01-19T23:08:38.664Z,6.70
2023-01-19T23:11:07.349Z,6.65
2023-01-19T23:13:35.307Z,6.59
2023-01-19T23:16:04.914Z,6.55
2023-01-19T23:18:33.004Z,6.49
2023-01-19T23:21:03.899Z,6.46
2023-01-19T23:23:31.790Z,6.42
2023-01-19T23:26:02.773Z,6.37
2023-01-19T23:28:30.728Z,6.32
2023-01-19T23:30:58.718Z,6.25
2023-01-19T23:33:28.046Z,6.21
2023-01-19T23:35:56.126Z,6.18
2023-01-19T23:38:24.052Z,6.16
2023-01-19T23:40:51.989Z,6.15
2023-01-19T23:43:19.967Z,6.16
2023-01-19T23:45:47.899Z,6.19
2023-01-19T23:48:15.788Z,6.22
2023-01-19T23:50:45.030Z,6.22
2023-01-19T23:53:12.904Z,6.19
2023-01-19T23:55:40.778Z,6.18
2023-01-19T23:58:08.810Z,6.18
